Royal, NE (68773)

2:00 PM CST on February 13, 2016 (GMT -0600)
Ewing | | Change Station
CLOSE
Current Station
Personal Weather Station
Location: Ewing, NE
Elevation: 1929 ft
Nearby Weather Stations

Elev 1929 ft 42.24 °N, 98.24 °W | Updated 36 seconds ago

Overcast
Overcast
19.7 °F
Feels Like 8 °F
N
11.0
Wind Variable Wind from South
Gusts 18.0 mph

Today
High -- | Low -- °F
--% Chance of Precip.
Yesterday
High -- | Low -- °F
Precip. -- in
Pressure 30.19 in
Visibility 10.0 miles
Clouds Scattered Clouds 3000 ft
Overcast 9500 ft
Windchill 8 °F
Dew Point 11 °F
Humidity 69%
Rainfall 0.00 in
Snow Depth Not available.
7:32 AM 6:01 PM
Waxing Crescent, 33% visible
METAR KONL 131935Z AUTO 16020G25KT 10SM SCT030 OVC095 M06/M13 A3019 RMK AO2 T10591128
Pressure 30.19 in
Visibility 10.0 miles
Clouds Scattered Clouds 3000 ft
Overcast 9500 ft
Windchill 8 °F
Dew Point 11 °F
Humidity 69%
Rainfall 0.00 in
Snow Depth Not available.
7:32 AM 6:01 PM
Waxing Crescent, 33% visible
METAR KONL 131935Z AUTO 16020G25KT 10SM SCT030 OVC095 M06/M13 A3019 RMK AO2 T10591128

10-Day Weather Forecast

Almanac

Astronomy

Feb. 13, 2016 Rise Set
Actual Time
Civil Twilight
Nautical Twilight
Astronomical Twilight
Moon
Length of Visible Light
Length of Day
Tomorrow will be .
, % of the Moon is Illuminated

Today's Extremes

State Highs State Lows

Community

WunderPhotos

Upload Photos

1,892,642 photos uploaded!

WunderBlog® & News

Nearby

Air Quality

  Air Quality AQ Index Pollutant
Not available.

Snow Depth

Station Depth Elevation

Earthquake Activity

City Distance Mag. Time & Date
Minimum magnitude displayed is 2.5.

Coastal Water Temperatures

Place Temperature

Stations

Nearby Weather Stations

Station Location Temp. Windchill Dew Point Humidity Wind Precip. Elev Updated Type
                   

Watches & Warnings

There are currently no watches in effect.